Time;durP1;ratioP1;P1;durP2;ratioP2;P2;SDS_P1;SDS_P2;PMS_P1;PMS_P2;Temp;Humidity;BMP_temperature;BMP_pressure;BME280_temperature;BME280_humidity;BME280_pressure;Samples;Min_cycle;Max_cycle;Signal;HPM_P1;HPM_P2
2024/03/09 00:00:27;;;;;;;12.20;5.90;;;;;;;;;;6180739;23;20211;-89
2024/03/09 00:03:33;;;;;;;15.07;6.60;;;;;;;;;;6182318;23;20156;-91
2024/03/09 00:06:38;;;;;;;12.83;5.87;;;;;;;;;;6179919;23;20223;-90
2024/03/09 00:09:44;;;;;;;13.73;5.77;;;;;;;;;;6181130;23;20171;-90
2024/03/09 00:12:51;;;;;;;12.07;6.03;;;;;;;;;;6181894;23;20168;-90
2024/03/09 00:15:56;;;;;;;14.20;6.03;;;;;;;;;;6181689;23;20160;-89
2024/03/09 00:19:03;;;;;;;11.93;5.60;;;;;;;;;;6181625;23;20199;-90
2024/03/09 00:22:08;;;;;;;13.23;5.80;;;;;;;;;;6181037;23;20167;-89
2024/03/09 00:25:13;;;;;;;12.17;5.83;;;;;;;;;;6179304;23;20287;-89
2024/03/09 00:28:20;;;;;;;10.80;5.53;;;;;;;;;;6178343;23;20152;-90
2024/03/09 00:31:26;;;;;;;13.07;6.13;;;;;;;;;;6179263;23;20168;-90
2024/03/09 00:34:35;;;;;;;15.70;6.57;;;;;;;;;;6179257;23;20147;-89
2024/03/09 00:37:39;;;;;;;12.10;6.10;;;;;;;;;;6179283;23;20940;-89
2024/03/09 00:40:44;;;;;;;13.50;5.83;;;;;;;;;;6178051;23;20616;-90
2024/03/09 00:43:54;;;;;;;13.13;6.30;;;;;;;;;;6178819;23;20238;-88
2024/03/09 00:47:00;;;;;;;12.27;5.60;;;;;;;;;;6178506;23;20164;-89
2024/03/09 00:50:07;;;;;;;18.27;5.97;;;;;;;;;;6179048;23;20164;-89
2024/03/09 00:53:12;;;;;;;14.40;5.93;;;;;;;;;;6179856;23;20600;-89
2024/03/09 00:56:17;;;;;;;13.50;5.90;;;;;;;;;;6178817;23;20163;-89
2024/03/09 00:59:24;;;;;;;11.73;6.00;;;;;;;;;;6180389;23;20159;-89
2024/03/09 01:02:30;;;;;;;11.17;5.77;;;;;;;;;;6183660;23;20192;-89
2024/03/09 01:05:35;;;;;;;14.00;5.83;;;;;;;;;;6183020;23;20615;-90
2024/03/09 01:08:40;;;;;;;11.40;5.50;;;;;;;;;;6182531;23;20260;-89
2024/03/09 01:11:48;;;;;;;12.47;5.83;;;;;;;;;;6180450;23;20164;-89
2024/03/09 01:14:55;;;;;;;12.27;5.50;;;;;;;;;;6181507;23;20168;-90
2024/03/09 01:18:01;;;;;;;12.90;5.70;;;;;;;;;;6179404;23;20195;-88
2024/03/09 01:21:07;;;;;;;11.67;5.73;;;;;;;;;;6177709;23;20622;-88
2024/03/09 01:24:12;;;;;;;17.07;6.07;;;;;;;;;;6179496;23;20164;-89
2024/03/09 01:27:17;;;;;;;13.37;6.33;;;;;;;;;;6179137;23;20506;-89
2024/03/09 01:30:25;;;;;;;14.87;6.53;;;;;;;;;;6179243;23;20280;-89
2024/03/09 01:33:31;;;;;;;15.33;6.27;;;;;;;;;;6179043;23;20179;-89
2024/03/09 01:36:36;;;;;;;14.77;6.40;;;;;;;;;;6196710;23;20179;-89
2024/03/09 01:39:42;;;;;;;13.33;6.23;;;;;;;;;;6187731;23;20167;-90
2024/03/09 01:42:47;;;;;;;17.47;6.77;;;;;;;;;;6180296;23;20156;-89
2024/03/09 01:45:53;;;;;;;17.93;7.27;;;;;;;;;;6179216;23;20164;-90
2024/03/09 01:49:00;;;;;;;14.37;6.27;;;;;;;;;;6180657;23;20235;-89
2024/03/09 01:52:07;;;;;;;11.23;5.67;;;;;;;;;;6180567;23;20582;-89
2024/03/09 01:55:13;;;;;;;11.60;5.50;;;;;;;;;;6179125;23;20152;-89
2024/03/09 01:58:19;;;;;;;15.13;5.80;;;;;;;;;;6179974;23;20219;-90
2024/03/09 02:01:26;;;;;;;19.30;6.97;;;;;;;;;;6179313;23;20513;-89
2024/03/09 02:04:34;;;;;;;15.10;6.63;;;;;;;;;;6177920;23;20210;-89
2024/03/09 02:07:40;;;;;;;23.00;7.97;;;;;;;;;;6176780;23;20155;-90
2024/03/09 02:10:45;;;;;;;23.63;9.50;;;;;;;;;;6178423;23;20160;-89
2024/03/09 02:13:49;;;;;;;17.07;7.20;;;;;;;;;;6178212;23;20172;-88
2024/03/09 02:16:58;;;;;;;12.37;5.93;;;;;;;;;;6178537;23;20167;-89
2024/03/09 02:20:10;;;;;;;14.20;5.80;;;;;;;;;;6178346;23;20187;-89
2024/03/09 02:23:16;;;;;;;14.50;6.27;;;;;;;;;;6177485;23;20168;-89
2024/03/09 02:26:22;;;;;;;13.63;5.80;;;;;;;;;;6180190;23;20197;-90
2024/03/09 02:29:27;;;;;;;18.60;6.00;;;;;;;;;;6181011;23;20192;-88
2024/03/09 02:32:32;;;;;;;12.23;5.73;;;;;;;;;;6178584;23;20167;-89
2024/03/09 02:35:37;;;;;;;15.80;6.47;;;;;;;;;;6179577;23;20164;-90
2024/03/09 02:38:42;;;;;;;18.70;6.33;;;;;;;;;;6178008;23;20207;-91
2024/03/09 02:41:49;;;;;;;17.27;6.80;;;;;;;;;;6178009;23;20239;-89
2024/03/09 02:44:54;;;;;;;15.30;6.70;;;;;;;;;;6180802;23;20163;-89
2024/03/09 02:47:59;;;;;;;14.33;6.73;;;;;;;;;;6181645;23;20171;-90
2024/03/09 02:51:04;;;;;;;16.87;6.87;;;;;;;;;;6181570;23;20164;-89
2024/03/09 02:54:10;;;;;;;15.53;7.03;;;;;;;;;;6179694;23;20152;-89
2024/03/09 02:57:17;;;;;;;16.00;6.50;;;;;;;;;;6178723;23;20151;-89
2024/03/09 03:00:23;;;;;;;19.63;7.93;;;;;;;;;;6179555;23;20497;-89
2024/03/09 03:03:46;;;;;;;23.57;8.63;;;;;;;;;;6179482;23;20172;-89
2024/03/09 03:06:52;;;;;;;12.37;6.30;;;;;;;;;;6179218;23;20175;-90
2024/03/09 03:09:58;;;;;;;23.47;8.10;;;;;;;;;;6179095;23;20168;-88
2024/03/09 03:13:06;;;;;;;26.07;9.60;;;;;;;;;;6181611;23;20655;-89
2024/03/09 03:16:17;;;;;;;32.10;9.57;;;;;;;;;;6180206;23;20172;-90
2024/03/09 03:19:22;;;;;;;27.47;9.10;;;;;;;;;;6178662;23;20187;-89
2024/03/09 03:22:30;;;;;;;24.63;8.20;;;;;;;;;;6179653;23;20504;-90
2024/03/09 03:25:35;;;;;;;16.20;5.87;;;;;;;;;;6177847;23;20270;-89
2024/03/09 03:28:44;;;;;;;14.07;6.30;;;;;;;;;;6180140;23;20152;-90
2024/03/09 03:31:49;;;;;;;13.43;6.17;;;;;;;;;;6179094;23;20674;-89
2024/03/09 03:34:55;;;;;;;17.07;6.93;;;;;;;;;;6178350;23;20279;-90
2024/03/09 03:38:01;;;;;;;17.57;7.50;;;;;;;;;;6178167;23;20522;-89
2024/03/09 03:41:07;;;;;;;12.83;6.23;;;;;;;;;;6177879;23;20293;-89
2024/03/09 03:44:14;;;;;;;14.13;6.23;;;;;;;;;;6178642;23;20260;-90
2024/03/09 03:47:19;;;;;;;14.90;6.60;;;;;;;;;;6177063;23;20183;-90
2024/03/09 03:50:24;;;;;;;12.40;5.93;;;;;;;;;;6181119;23;20267;-89
2024/03/09 03:53:30;;;;;;;13.37;5.67;;;;;;;;;;6177142;23;20619;-89
2024/03/09 03:56:36;;;;;;;12.33;6.03;;;;;;;;;;6176240;23;20168;-89
2024/03/09 03:59:42;;;;;;;14.17;5.90;;;;;;;;;;6176121;23;20215;-89
2024/03/09 04:02:47;;;;;;;14.50;5.97;;;;;;;;;;6193069;23;20232;-90
2024/03/09 04:05:53;;;;;;;13.70;6.00;;;;;;;;;;6177484;23;20147;-89
2024/03/09 04:08:58;;;;;;;11.87;5.93;;;;;;;;;;6178898;23;20164;-89
2024/03/09 04:12:04;;;;;;;13.87;6.17;;;;;;;;;;6177874;23;20172;-89
2024/03/09 04:15:13;;;;;;;14.53;5.80;;;;;;;;;;6178583;23;20172;-90
2024/03/09 04:18:18;;;;;;;11.37;5.63;;;;;;;;;;6178265;23;20199;-89
2024/03/09 04:21:23;;;;;;;14.70;6.43;;;;;;;;;;6177610;23;20239;-89
2024/03/09 04:24:29;;;;;;;14.40;6.53;;;;;;;;;;6177526;23;20168;-90
2024/03/09 04:27:34;;;;;;;14.23;5.87;;;;;;;;;;6176025;23;20171;-90
2024/03/09 04:30:42;;;;;;;13.00;5.97;;;;;;;;;;6175813;23;20712;-90
2024/03/09 04:33:48;;;;;;;15.37;5.70;;;;;;;;;;6176425;23;20151;-90
2024/03/09 04:36:53;;;;;;;12.63;5.80;;;;;;;;;;6177080;23;20616;-89
2024/03/09 04:39:58;;;;;;;13.70;5.73;;;;;;;;;;6176314;23;20335;-90
2024/03/09 04:43:04;;;;;;;17.50;6.70;;;;;;;;;;6175591;23;20163;-89
2024/03/09 04:46:11;;;;;;;14.37;6.23;;;;;;;;;;6175602;23;20164;-89
2024/03/09 04:49:16;;;;;;;12.87;5.87;;;;;;;;;;6178489;23;20203;-89
2024/03/09 04:52:21;;;;;;;16.07;6.17;;;;;;;;;;6177954;23;20171;-90
2024/03/09 04:55:27;;;;;;;13.53;6.10;;;;;;;;;;6178181;23;20628;-90
2024/03/09 04:58:32;;;;;;;14.70;6.40;;;;;;;;;;6194647;23;20254;-89
2024/03/09 05:01:38;;;;;;;14.13;6.33;;;;;;;;;;6175606;23;20191;-87
2024/03/09 05:04:44;;;;;;;12.53;5.90;;;;;;;;;;6173970;23;20180;-89
2024/03/09 05:07:49;;;;;;;13.93;6.13;;;;;;;;;;6175557;23;20167;-90
2024/03/09 05:10:54;;;;;;;17.67;5.87;;;;;;;;;;6195487;23;20175;-90
2024/03/09 05:14:00;;;;;;;14.10;6.10;;;;;;;;;;6177682;23;20168;-89
2024/03/09 05:17:07;;;;;;;14.80;6.10;;;;;;;;;;6182254;23;20215;-90
2024/03/09 05:20:19;;;;;;;12.87;5.80;;;;;;;;;;6176543;23;20207;-88
2024/03/09 05:23:24;;;;;;;16.17;5.93;;;;;;;;;;6177373;23;20180;-89
2024/03/09 05:26:32;;;;;;;12.93;5.57;;;;;;;;;;6179686;23;20167;-89
2024/03/09 05:29:37;;;;;;;16.03;6.70;;;;;;;;;;6177526;23;20631;-89
2024/03/09 05:32:50;;;;;;;37.07;14.63;;;;;;;;;;6178903;23;20242;-90
2024/03/09 05:35:58;;;;;;;14.77;6.47;;;;;;;;;;6194931;23;20169;-90
2024/03/09 05:39:05;;;;;;;14.73;6.30;;;;;;;;;;6180544;23;20195;-89
2024/03/09 05:42:10;;;;;;;11.37;5.50;;;;;;;;;;6181196;23;20164;-89
2024/03/09 05:45:23;;;;;;;12.70;5.50;;;;;;;;;;6182074;23;20195;-89
2024/03/09 05:48:33;;;;;;;12.40;6.33;;;;;;;;;;6183660;23;20238;-88
2024/03/09 05:51:38;;;;;;;13.37;6.30;;;;;;;;;;6182855;23;20164;-88
2024/03/09 05:54:48;;;;;;;14.43;6.20;;;;;;;;;;6183922;23;20501;-90
2024/03/09 05:57:54;;;;;;;15.57;6.47;;;;;;;;;;6179919;23;20168;-90
2024/03/09 06:01:00;;;;;;;16.03;6.83;;;;;;;;;;6181780;23;20203;-90
2024/03/09 06:04:08;;;;;;;15.67;6.90;;;;;;;;;;6181869;23;20294;-90
2024/03/09 06:07:16;;;;;;;13.57;6.03;;;;;;;;;;6182845;23;20168;-91
2024/03/09 06:10:21;;;;;;;28.47;6.67;;;;;;;;;;6183606;23;20231;-89
2024/03/09 06:13:27;;;;;;;16.63;6.13;;;;;;;;;;6183337;23;20188;-89
2024/03/09 06:16:33;;;;;;;18.37;7.20;;;;;;;;;;6201163;23;20207;-89
2024/03/09 06:19:41;;;;;;;14.93;6.20;;;;;;;;;;6183174;23;20248;-89
2024/03/09 06:22:46;;;;;;;18.23;6.63;;;;;;;;;;6180263;23;20172;-90
2024/03/09 06:25:56;;;;;;;14.20;6.10;;;;;;;;;;6182099;23;20191;-90
2024/03/09 06:29:01;;;;;;;12.63;6.00;;;;;;;;;;6181174;23;20799;-88
2024/03/09 06:32:09;;;;;;;14.13;6.53;;;;;;;;;;6199977;23;20287;-89
2024/03/09 06:35:19;;;;;;;15.07;6.67;;;;;;;;;;6181933;23;20215;-90
2024/03/09 06:38:25;;;;;;;15.83;6.80;;;;;;;;;;6183729;23;20167;-90
2024/03/09 06:41:32;;;;;;;16.93;6.70;;;;;;;;;;6182456;23;20200;-91
2024/03/09 06:44:37;;;;;;;14.00;6.53;;;;;;;;;;6181417;23;20160;-90
2024/03/09 06:47:42;;;;;;;16.83;7.10;;;;;;;;;;6183275;23;20275;-89
2024/03/09 06:50:52;;;;;;;17.17;6.93;;;;;;;;;;6182309;23;20167;-89
2024/03/09 06:53:59;;;;;;;16.53;7.43;;;;;;;;;;6178013;23;20164;-91
2024/03/09 06:57:09;;;;;;;14.47;7.10;;;;;;;;;;6178903;23;20164;-90
2024/03/09 07:00:16;;;;;;;19.47;7.10;;;;;;;;;;6179587;23;20192;-89
2024/03/09 07:03:24;;;;;;;12.63;6.33;;;;;;;;;;6180049;23;20155;-90
2024/03/09 07:06:32;;;;;;;13.97;6.90;;;;;;;;;;6178755;23;20243;-87
2024/03/09 07:09:38;;;;;;;16.27;7.03;;;;;;;;;;6182670;23;20192;-89
2024/03/09 07:12:44;;;;;;;20.07;7.10;;;;;;;;;;6180633;23;20179;-92
2024/03/09 07:15:50;;;;;;;15.17;6.77;;;;;;;;;;6182294;23;20159;-89
2024/03/09 07:18:56;;;;;;;15.07;6.90;;;;;;;;;;6185437;23;20172;-90
2024/03/09 07:22:06;;;;;;;15.40;6.77;;;;;;;;;;6200950;23;20152;-91
2024/03/09 07:25:14;;;;;;;13.10;6.70;;;;;;;;;;6184901;23;20188;-90
2024/03/09 07:28:23;;;;;;;67.83;23.87;;;;;;;;;;6180606;23;20183;-91
2024/03/09 07:31:29;;;;;;;18.23;7.30;;;;;;;;;;6200719;23;20160;-90
2024/03/09 07:34:38;;;;;;;18.67;7.73;;;;;;;;;;6184716;23;20148;-91
2024/03/09 07:38:04;;;;;;;27.03;11.17;;;;;;;;;;6184146;23;20152;-90
2024/03/09 07:41:16;;;;;;;16.70;6.87;;;;;;;;;;6187029;23;20212;-89
2024/03/09 10:54:25;;;;;;;4.10;2.20;;;;;;;;;;6164283;23;20198;-89
2024/03/09 10:57:30;;;;;;;3.28;2.03;;;;;;;;;;6204385;23;20171;-89
2024/03/09 11:00:36;;;;;;;3.90;2.00;;;;;;;;;;6186658;23;20199;-88
2024/03/09 11:03:45;;;;;;;4.50;2.20;;;;;;;;;;6203654;23;20240;-89
2024/03/09 11:06:55;;;;;;;4.57;2.17;;;;;;;;;;6205193;23;20171;-90
2024/03/09 11:10:05;;;;;;;3.13;2.00;;;;;;;;;;6188275;23;20179;-89
2024/03/09 11:13:14;;;;;;;3.38;2.08;;;;;;;;;;6205774;23;20212;-89
2024/03/09 12:35:36;;;;;;;2.47;1.40;;;;;;;;;;6139168;23;20858;-88
2024/03/09 12:38:42;;;;;;;1.52;1.00;;;;;;;;;;6111579;23;20316;-89
2024/03/09 12:45:28;;;;;;;1.55;0.95;;;;;;;;;;6154562;23;20165;-89
2024/03/09 12:48:35;;;;;;;1.35;1.00;;;;;;;;;;6154223;23;20210;-90
2024/03/09 12:51:48;;;;;;;1.42;0.90;;;;;;;;;;6153896;23;20193;-90
2024/03/09 12:54:55;;;;;;;2.05;1.10;;;;;;;;;;6152649;23;20503;-90
2024/03/09 12:58:00;;;;;;;1.80;1.00;;;;;;;;;;6153845;23;20168;-90
2024/03/09 13:01:06;;;;;;;1.77;1.05;;;;;;;;;;6155455;23;20204;-90
2024/03/09 13:04:13;;;;;;;2.33;1.10;;;;;;;;;;6154016;23;20236;-89
2024/03/09 13:07:20;;;;;;;2.00;0.80;;;;;;;;;;6152057;23;20212;-91
2024/03/09 13:10:31;;;;;;;1.52;1.00;;;;;;;;;;6153216;23;20173;-90
2024/03/09 13:13:39;;;;;;;1.30;0.90;;;;;;;;;;6155466;23;20151;-91
2024/03/09 13:16:49;;;;;;;2.55;0.95;;;;;;;;;;6162284;23;20240;-90
2024/03/09 13:19:54;;;;;;;1.52;0.80;;;;;;;;;;6156034;23;20250;-90
2024/03/09 13:23:04;;;;;;;1.00;0.80;;;;;;;;;;6155907;23;20165;-90
2024/03/09 13:26:13;;;;;;;2.97;0.82;;;;;;;;;;6154005;23;20221;-90
2024/03/09 13:29:19;;;;;;;1.13;0.80;;;;;;;;;;6153650;23;20157;-89
2024/03/09 13:32:24;;;;;;;1.77;1.00;;;;;;;;;;6153637;23;20601;-90
2024/03/09 13:35:30;;;;;;;1.20;0.90;;;;;;;;;;6156109;23;20189;-90
2024/03/09 13:38:36;;;;;;;2.67;1.40;;;;;;;;;;6155770;23;20180;-91
2024/03/09 13:41:42;;;;;;;2.30;1.13;;;;;;;;;;6154272;23;20267;-90
2024/03/09 13:44:49;;;;;;;0.95;0.70;;;;;;;;;;6153640;23;20156;-91
2024/03/09 13:47:55;;;;;;;0.85;0.80;;;;;;;;;;6154082;23;20169;-90
2024/03/09 13:51:02;;;;;;;0.95;0.73;;;;;;;;;;6155131;23;20168;-90
2024/03/09 13:54:09;;;;;;;1.02;0.77;;;;;;;;;;6138597;23;20168;-91
2024/03/09 13:57:18;;;;;;;0.80;0.70;;;;;;;;;;6155335;23;20168;-90
2024/03/09 14:00:27;;;;;;;2.58;0.90;;;;;;;;;;6152617;23;20200;-90
2024/03/09 14:03:34;;;;;;;1.90;0.85;;;;;;;;;;6152566;23;20180;-90
2024/03/09 14:06:40;;;;;;;2.30;1.27;;;;;;;;;;6152119;23;20172;-89
2024/03/09 14:09:48;;;;;;;3.05;1.20;;;;;;;;;;6169975;23;20248;-90
2024/03/09 14:12:54;;;;;;;3.22;1.75;;;;;;;;;;6150484;23;20504;-91
2024/03/09 14:16:00;;;;;;;1.58;1.00;;;;;;;;;;6151607;23;20184;-90
2024/03/09 14:19:05;;;;;;;3.97;1.02;;;;;;;;;;6153337;23;20169;-90
2024/03/09 14:22:11;;;;;;;2.72;1.17;;;;;;;;;;6151781;23;20289;-91
2024/03/09 14:25:17;;;;;;;3.00;1.20;;;;;;;;;;6154925;23;20299;-91
2024/03/09 14:28:23;;;;;;;1.85;1.10;;;;;;;;;;6151482;23;20165;-91
2024/03/09 14:31:30;;;;;;;4.70;1.30;;;;;;;;;;6151343;23;20172;-90
2024/03/09 14:34:40;;;;;;;5.28;1.20;;;;;;;;;;6152031;23;20188;-90
2024/03/09 14:37:46;;;;;;;1.80;1.10;;;;;;;;;;6152200;23;20197;-91
2024/03/09 14:40:53;;;;;;;3.70;1.10;;;;;;;;;;6150048;23;20193;-90
2024/03/09 14:43:58;;;;;;;4.25;1.10;;;;;;;;;;6151092;23;20221;-92
2024/03/09 14:47:08;;;;;;;2.67;1.20;;;;;;;;;;6154059;23;20172;-90
2024/03/09 14:50:14;;;;;;;1.40;1.10;;;;;;;;;;6151166;23;20176;-91
2024/03/09 14:53:22;;;;;;;1.90;0.90;;;;;;;;;;6150871;23;20173;-92
2024/03/09 14:56:28;;;;;;;1.35;0.90;;;;;;;;;;6149943;23;20172;-91
2024/03/09 14:59:34;;;;;;;0.85;0.68;;;;;;;;;;6153082;23;20172;-91
2024/03/09 15:02:39;;;;;;;3.25;0.80;;;;;;;;;;6150346;23;20176;-91
2024/03/09 15:05:44;;;;;;;1.10;0.80;;;;;;;;;;6153192;23;20156;-91
2024/03/09 15:08:55;;;;;;;1.60;0.88;;;;;;;;;;6150824;23;20164;-90
2024/03/09 15:12:02;;;;;;;2.55;0.90;;;;;;;;;;6151056;23;20621;-90
2024/03/09 15:15:12;;;;;;;1.00;0.90;;;;;;;;;;6152242;23;20165;-90
2024/03/09 15:18:17;;;;;;;3.72;0.90;;;;;;;;;;6150731;23;20185;-90
2024/03/09 15:21:24;;;;;;;1.80;0.80;;;;;;;;;;6151683;23;20204;-91
2024/03/09 15:24:30;;;;;;;1.52;1.00;;;;;;;;;;6152116;23;20185;-89
2024/03/09 15:27:43;;;;;;;4.35;1.00;;;;;;;;;;6152556;23;20180;-91
2024/03/09 15:30:50;;;;;;;1.95;0.90;;;;;;;;;;6152017;23;20168;-91
2024/03/09 15:33:55;;;;;;;1.15;0.80;;;;;;;;;;6151943;23;20168;-89
2024/03/09 15:37:00;;;;;;;3.15;0.90;;;;;;;;;;6149914;23;20184;-90
2024/03/09 15:40:14;;;;;;;2.50;1.00;;;;;;;;;;6151322;23;20298;-90
2024/03/09 15:43:25;;;;;;;1.20;0.90;;;;;;;;;;6154990;23;20188;-90
2024/03/09 15:46:35;;;;;;;3.10;1.10;;;;;;;;;;6155003;23;20168;-90
2024/03/09 15:49:47;;;;;;;1.65;1.05;;;;;;;;;;6152972;23;20222;-90
2024/03/09 15:52:52;;;;;;;2.50;0.98;;;;;;;;;;6151066;23;20233;-90
2024/03/09 15:55:57;;;;;;;1.52;0.90;;;;;;;;;;6151937;23;20212;-89
2024/03/09 15:59:06;;;;;;;1.23;0.90;;;;;;;;;;6151804;23;20609;-89
2024/03/09 16:02:15;;;;;;;2.08;1.05;;;;;;;;;;6151547;23;20196;-89
2024/03/09 16:05:23;;;;;;;1.25;1.00;;;;;;;;;;6150427;23;20164;-90
2024/03/09 16:08:28;;;;;;;1.42;1.10;;;;;;;;;;6150721;23;20172;-89
2024/03/09 16:11:37;;;;;;;3.10;1.15;;;;;;;;;;6151764;23;20164;-91
2024/03/09 16:14:46;;;;;;;1.90;1.25;;;;;;;;;;6150629;23;20165;-90
2024/03/09 16:17:54;;;;;;;5.32;1.48;;;;;;;;;;6149327;23;20169;-91
2024/03/09 16:21:06;;;;;;;3.33;1.45;;;;;;;;;;6148971;23;20236;-90
2024/03/09 16:24:14;;;;;;;1.75;1.10;;;;;;;;;;6151513;23;20209;-90
2024/03/09 16:27:25;;;;;;;2.83;1.40;;;;;;;;;;6149655;23;20446;-90
2024/03/09 16:30:35;;;;;;;5.60;2.40;;;;;;;;;;6150650;23;20177;-88
2024/03/09 16:33:42;;;;;;;4.82;2.45;;;;;;;;;;6152204;23;20189;-90
2024/03/09 16:36:49;;;;;;;4.05;2.00;;;;;;;;;;6151276;23;20156;-91
2024/03/09 16:39:56;;;;;;;4.57;2.10;;;;;;;;;;6153616;23;20243;-90
2024/03/09 16:43:05;;;;;;;10.77;4.57;;;;;;;;;;6171913;23;20176;-90
2024/03/09 16:46:17;;;;;;;8.98;3.83;;;;;;;;;;6157770;23;20226;-89
2024/03/09 16:49:23;;;;;;;9.07;4.75;;;;;;;;;;6154058;23;20509;-90
2024/03/09 16:52:29;;;;;;;9.45;3.78;;;;;;;;;;6154349;23;20619;-90
2024/03/09 16:55:36;;;;;;;5.82;3.67;;;;;;;;;;6157000;23;20161;-91
2024/03/09 16:58:42;;;;;;;4.85;2.90;;;;;;;;;;6154029;23;20492;-91
2024/03/09 17:01:52;;;;;;;3.22;2.08;;;;;;;;;;6152687;23;20192;-90
2024/03/09 17:05:01;;;;;;;5.70;2.40;;;;;;;;;;6151511;23;20172;-90
2024/03/09 17:08:07;;;;;;;7.95;2.85;;;;;;;;;;6153992;23;20470;-90
2024/03/09 17:11:13;;;;;;;12.07;4.28;;;;;;;;;;6152943;23;20292;-90
2024/03/09 17:14:19;;;;;;;8.38;2.60;;;;;;;;;;6153004;23;20216;-91
2024/03/09 17:17:28;;;;;;;6.68;2.22;;;;;;;;;;6153177;23;20160;-90
2024/03/09 17:20:33;;;;;;;7.82;2.72;;;;;;;;;;6149994;23;20262;-89
2024/03/09 17:23:38;;;;;;;6.22;2.65;;;;;;;;;;6150463;23;20181;-90
2024/03/09 17:26:45;;;;;;;5.47;2.30;;;;;;;;;;6148655;23;20164;-89
2024/03/09 17:29:52;;;;;;;6.38;2.67;;;;;;;;;;6147748;23;20172;-89
2024/03/09 17:33:03;;;;;;;6.63;2.60;;;;;;;;;;6149834;23;20176;-90
2024/03/09 17:36:11;;;;;;;5.88;2.65;;;;;;;;;;6148717;23;20181;-90
2024/03/09 17:39:22;;;;;;;9.77;3.53;;;;;;;;;;6150608;23;20253;-90
2024/03/09 17:42:27;;;;;;;8.50;4.25;;;;;;;;;;6152080;23;20180;-90
2024/03/09 17:45:33;;;;;;;14.27;7.00;;;;;;;;;;6152762;23;20160;-89
2024/03/09 17:48:41;;;;;;;9.88;4.18;;;;;;;;;;6152757;23;20631;-90
2024/03/09 17:51:46;;;;;;;10.70;3.85;;;;;;;;;;6133093;23;20172;-90
2024/03/09 17:54:53;;;;;;;8.35;3.85;;;;;;;;;;6150120;23;20169;-92
2024/03/09 17:57:59;;;;;;;8.70;3.72;;;;;;;;;;6149290;23;20204;-90
2024/03/09 18:01:05;;;;;;;7.03;3.78;;;;;;;;;;6153193;23;20196;-90
2024/03/09 18:04:12;;;;;;;13.10;3.92;;;;;;;;;;6151381;23;20245;-89
2024/03/09 18:07:18;;;;;;;9.10;3.92;;;;;;;;;;6150061;23;20706;-89
2024/03/09 18:10:25;;;;;;;8.70;4.00;;;;;;;;;;6151218;23;20176;-91
2024/03/09 18:13:30;;;;;;;8.68;3.83;;;;;;;;;;6155284;23;20214;-91
2024/03/09 18:16:35;;;;;;;10.82;4.40;;;;;;;;;;6155890;23;20251;-90
2024/03/09 18:19:42;;;;;;;12.40;4.28;;;;;;;;;;6156757;23;20156;-91
2024/03/09 18:22:48;;;;;;;8.80;3.38;;;;;;;;;;6152248;23;20271;-88
2024/03/09 18:25:53;;;;;;;8.02;3.17;;;;;;;;;;6152901;23;20222;-89
2024/03/09 18:28:59;;;;;;;10.55;4.90;;;;;;;;;;6150775;23;20309;-89
2024/03/09 18:32:04;;;;;;;8.10;4.07;;;;;;;;;;6155783;23;20149;-89
2024/03/09 18:35:11;;;;;;;10.07;4.22;;;;;;;;;;6152420;23;20217;-90
2024/03/09 18:38:17;;;;;;;11.75;4.15;;;;;;;;;;6151479;23;20168;-87
2024/03/09 18:41:26;;;;;;;10.15;5.28;;;;;;;;;;6153527;23;20283;-88
2024/03/09 18:44:34;;;;;;;17.33;8.75;;;;;;;;;;6150950;23;20499;-88
2024/03/09 18:47:56;;;;;;;12.50;5.55;;;;;;;;;;6152247;23;20168;-89
2024/03/09 18:51:05;;;;;;;13.05;6.05;;;;;;;;;;6152224;23;20705;-88
2024/03/09 18:54:11;;;;;;;10.05;4.68;;;;;;;;;;6152995;23;20233;-90
2024/03/09 18:57:16;;;;;;;9.77;4.03;;;;;;;;;;6154994;23;20253;-90
2024/03/09 19:00:24;;;;;;;10.40;4.47;;;;;;;;;;6152287;23;20504;-90
2024/03/09 19:03:29;;;;;;;9.70;4.50;;;;;;;;;;6154626;23;20180;-89
2024/03/09 19:06:36;;;;;;;16.25;7.40;;;;;;;;;;6153553;23;20176;-90
2024/03/09 19:09:42;;;;;;;11.30;4.97;;;;;;;;;;6151817;23;20157;-90
2024/03/09 19:12:47;;;;;;;9.82;4.43;;;;;;;;;;6152036;23;20176;-91
2024/03/09 19:15:54;;;;;;;9.55;4.00;;;;;;;;;;6153120;23;20500;-89
2024/03/09 19:18:59;;;;;;;12.43;4.03;;;;;;;;;;6153028;23;20169;-89
2024/03/09 19:22:07;;;;;;;10.70;4.45;;;;;;;;;;6152456;23;20192;-89
2024/03/09 19:25:12;;;;;;;10.00;4.70;;;;;;;;;;6154178;23;20201;-90
2024/03/09 19:28:17;;;;;;;9.85;5.50;;;;;;;;;;6155951;23;20172;-88
2024/03/09 19:31:23;;;;;;;11.38;5.65;;;;;;;;;;6152599;23;20176;-90
2024/03/09 19:34:29;;;;;;;14.45;6.50;;;;;;;;;;6153052;23;20216;-89
2024/03/09 19:37:37;;;;;;;11.68;5.30;;;;;;;;;;6152882;23;20168;-88
2024/03/09 19:40:42;;;;;;;15.45;6.35;;;;;;;;;;6153651;23;20188;-88
2024/03/09 19:43:48;;;;;;;22.15;7.80;;;;;;;;;;6153243;23;20216;-89
2024/03/09 19:46:53;;;;;;;18.48;7.35;;;;;;;;;;6152778;23;20691;-90
2024/03/09 19:49:59;;;;;;;13.93;6.30;;;;;;;;;;6153156;23;20159;-89
2024/03/09 19:53:06;;;;;;;12.00;5.95;;;;;;;;;;6152321;23;20159;-91
2024/03/09 19:56:12;;;;;;;12.65;5.90;;;;;;;;;;6153262;23;20168;-89
2024/03/09 19:59:18;;;;;;;10.85;4.47;;;;;;;;;;6153608;23;20220;-89
2024/03/09 20:02:24;;;;;;;9.88;4.75;;;;;;;;;;6153875;23;20563;-92
2024/03/09 20:05:32;;;;;;;9.50;4.57;;;;;;;;;;6149711;23;20220;-87
2024/03/09 20:08:39;;;;;;;10.98;5.47;;;;;;;;;;6170472;23;20193;-90
2024/03/09 20:11:45;;;;;;;7.78;3.67;;;;;;;;;;6152778;23;20180;-89
2024/03/09 20:14:51;;;;;;;7.80;4.03;;;;;;;;;;6153695;23;20176;-89
2024/03/09 20:17:55;;;;;;;11.45;4.47;;;;;;;;;;6152861;23;20168;-90
2024/03/09 20:21:01;;;;;;;12.40;4.53;;;;;;;;;;6154224;23;20164;-91
2024/03/09 20:24:12;;;;;;;11.27;4.93;;;;;;;;;;6153696;23;20172;-89
2024/03/09 20:27:18;;;;;;;7.80;3.67;;;;;;;;;;6155835;23;20168;-88
2024/03/09 20:30:24;;;;;;;8.27;4.45;;;;;;;;;;6150974;23;20168;-89
2024/03/09 20:33:29;;;;;;;6.40;3.55;;;;;;;;;;6153398;23;20176;-90
2024/03/09 20:36:36;;;;;;;7.32;3.00;;;;;;;;;;6154648;23;20160;-89
2024/03/09 20:39:43;;;;;;;9.27;3.60;;;;;;;;;;6152624;23;20651;-89
2024/03/09 20:42:49;;;;;;;5.90;2.90;;;;;;;;;;6153956;23;20196;-89
2024/03/09 20:45:56;;;;;;;15.35;4.70;;;;;;;;;;6152584;23;20164;-88
2024/03/09 20:49:04;;;;;;;22.70;10.32;;;;;;;;;;6151051;23;20483;-89
2024/03/09 20:52:10;;;;;;;30.73;13.32;;;;;;;;;;6152602;23;20247;-89
2024/03/09 20:55:17;;;;;;;23.92;10.85;;;;;;;;;;6153216;23;20193;-89
2024/03/09 20:58:25;;;;;;;10.60;4.40;;;;;;;;;;6156627;23;20148;-88
2024/03/09 21:01:31;;;;;;;6.38;3.05;;;;;;;;;;6152388;23;20172;-91
2024/03/09 21:04:37;;;;;;;6.13;2.92;;;;;;;;;;6153602;23;20165;-91
2024/03/09 21:07:43;;;;;;;7.10;3.03;;;;;;;;;;6154131;23;20177;-91
2024/03/09 21:10:50;;;;;;;5.90;2.55;;;;;;;;;;6152627;23;20165;-90
2024/03/09 21:13:55;;;;;;;5.20;2.20;;;;;;;;;;6154787;23;20157;-90
2024/03/09 21:17:01;;;;;;;4.85;2.50;;;;;;;;;;6153557;23;20251;-89
2024/03/09 21:20:11;;;;;;;11.50;2.92;;;;;;;;;;6156730;23;20189;-90
2024/03/09 21:23:16;;;;;;;4.40;2.25;;;;;;;;;;6154676;23;20196;-89
2024/03/09 21:26:23;;;;;;;5.70;2.10;;;;;;;;;;6155871;23;20164;-88
2024/03/09 21:29:29;;;;;;;5.28;2.75;;;;;;;;;;6155541;23;20164;-88
2024/03/09 21:32:34;;;;;;;7.53;2.20;;;;;;;;;;6156277;23;20160;-89
2024/03/09 21:35:39;;;;;;;4.82;1.80;;;;;;;;;;6173274;23;20602;-90
2024/03/09 21:38:45;;;;;;;7.78;2.40;;;;;;;;;;6153825;23;20213;-91
2024/03/09 21:41:52;;;;;;;7.03;2.30;;;;;;;;;;6153918;23;20177;-90
2024/03/09 21:44:58;;;;;;;5.22;2.53;;;;;;;;;;6153696;23;20257;-88
2024/03/09 21:48:05;;;;;;;6.05;2.10;;;;;;;;;;6153845;23;20168;-90
2024/03/09 21:51:10;;;;;;;7.50;2.38;;;;;;;;;;6154186;23;20212;-90
2024/03/09 21:54:15;;;;;;;8.40;2.35;;;;;;;;;;6151606;23;20168;-88
2024/03/09 21:57:22;;;;;;;8.77;3.92;;;;;;;;;;6152735;23;20210;-90
2024/03/09 22:00:29;;;;;;;8.45;4.30;;;;;;;;;;6151451;23;20169;-87
2024/03/09 22:03:34;;;;;;;6.43;2.85;;;;;;;;;;6152595;23;20176;-89
2024/03/09 22:06:39;;;;;;;4.63;2.28;;;;;;;;;;6154695;23;20220;-88
2024/03/09 22:09:45;;;;;;;4.63;2.35;;;;;;;;;;6152460;23;20212;-88
2024/03/09 22:12:54;;;;;;;4.30;1.90;;;;;;;;;;6151981;23;20204;-88
2024/03/09 22:15:59;;;;;;;4.45;2.05;;;;;;;;;;6150864;23;20177;-90
2024/03/09 22:19:06;;;;;;;4.45;2.05;;;;;;;;;;6152949;23;20168;-90
2024/03/09 22:22:12;;;;;;;5.22;2.13;;;;;;;;;;6152767;23;20220;-90
2024/03/09 22:25:18;;;;;;;5.28;1.90;;;;;;;;;;6155034;23;20362;-90
2024/03/09 22:28:25;;;;;;;3.00;1.70;;;;;;;;;;6154521;23;20168;-89
2024/03/09 22:31:30;;;;;;;5.75;2.80;;;;;;;;;;6155085;23;20172;-88
2024/03/09 22:34:35;;;;;;;4.70;2.25;;;;;;;;;;6154879;23;20197;-89
2024/03/09 22:37:41;;;;;;;7.93;3.92;;;;;;;;;;6154211;23;20240;-89
2024/03/09 22:40:46;;;;;;;8.23;4.00;;;;;;;;;;6153257;23;20211;-88
2024/03/09 22:43:54;;;;;;;6.57;3.15;;;;;;;;;;6151198;23;20323;-88
2024/03/09 22:47:00;;;;;;;4.50;2.20;;;;;;;;;;6151482;23;20665;-87
2024/03/09 22:50:06;;;;;;;8.68;2.30;;;;;;;;;;6150232;23;20208;-89
2024/03/09 22:53:11;;;;;;;5.50;2.10;;;;;;;;;;6151061;23;20149;-88
2024/03/09 22:56:17;;;;;;;5.93;2.20;;;;;;;;;;6150486;23;20247;-89
2024/03/09 22:59:24;;;;;;;4.97;1.95;;;;;;;;;;6150577;23;20265;-90
2024/03/09 23:02:29;;;;;;;7.28;2.60;;;;;;;;;;6152111;23;20247;-88